Time;durP1;ratioP1;P1;durP2;ratioP2;P2;SDS_P1;SDS_P2;PMS_P1;PMS_P2;Temp;Humidity;BMP_temperature;BMP_pressure;BME280_temperature;BME280_humidity;BME280_pressure;Samples;Min_cycle;Max_cycle;Signal;HPM_P1;HPM_P2
2022/08/27 00:01:32;;;;;;;22.60;13.38;;;19.20;99.90;;;;;;4988449;28;20050;-45
2022/08/27 00:03:57;;;;;;;16.00;13.13;;;19.10;99.90;;;;;;4972685;28;20049;-48
2022/08/27 00:06:24;;;;;;;24.33;13.60;;;19.10;99.90;;;;;;4968085;28;20122;-48
2022/08/27 00:08:51;;;;;;;19.90;14.02;;;19.20;99.90;;;;;;4991020;28;20034;-45
2022/08/27 00:11:18;;;;;;;24.75;14.70;;;19.20;99.90;;;;;;4982752;28;20081;-45
2022/08/27 00:13:45;;;;;;;24.05;13.93;;;19.10;99.90;;;;;;4990702;28;20061;-46
2022/08/27 00:16:13;;;;;;;21.25;13.93;;;19.10;99.90;;;;;;4988113;28;20030;-48
2022/08/27 00:18:40;;;;;;;32.33;14.27;;;19.10;99.90;;;;;;4989379;28;20026;-47
2022/08/27 00:21:06;;;;;;;24.70;13.95;;;19.10;99.90;;;;;;4988737;28;20018;-49
2022/08/27 00:23:32;;;;;;;20.48;13.65;;;19.10;99.90;;;;;;4969079;28;20110;-48
2022/08/27 00:25:58;;;;;;;21.85;13.38;;;19.10;99.90;;;;;;4989973;28;20101;-52
2022/08/27 00:28:26;;;;;;;23.83;13.70;;;19.00;99.90;;;;;;4984206;28;20089;-50
2022/08/27 00:30:54;;;;;;;21.65;13.57;;;19.00;99.90;;;;;;4990381;28;20030;-47
2022/08/27 00:33:20;;;;;;;21.08;14.80;;;19.00;99.90;;;;;;4986586;28;20027;-47
2022/08/27 00:35:46;;;;;;;19.27;14.13;;;19.00;99.90;;;;;;4951665;28;20034;-48
2022/08/27 00:38:12;;;;;;;24.92;14.43;;;19.00;99.90;;;;;;4987731;28;20037;-46
2022/08/27 00:40:39;;;;;;;23.08;14.23;;;19.00;99.90;;;;;;4972856;28;20026;-45
2022/08/27 00:43:04;;;;;;;23.25;15.45;;;18.90;99.90;;;;;;4986555;28;20601;-45
2022/08/27 00:45:40;;;;;;;25.25;15.00;;;18.90;99.90;;;;;;4972017;28;20014;-49
2022/08/27 00:48:09;;;;;;;22.50;14.48;;;18.90;99.90;;;;;;4981267;28;20501;-47
2022/08/27 00:50:46;;;;;;;24.58;13.90;;;18.90;99.90;;;;;;4988545;28;20022;-50
2022/08/27 00:53:23;;;;;;;22.85;14.75;;;18.80;99.90;;;;;;4984118;28;20026;-52
2022/08/27 00:55:58;;;;;;;22.98;15.18;;;18.80;99.90;;;;;;4987836;28;20510;-49
2022/08/27 00:58:30;;;;;;;20.80;14.27;;;18.80;99.90;;;;;;4976002;28;20109;-48
2022/08/27 01:00:58;;;;;;;31.90;15.57;;;18.80;99.90;;;;;;4966067;28;20065;-47
2022/08/27 01:03:26;;;;;;;23.75;14.65;;;18.70;99.90;;;;;;4941213;28;20433;-48
2022/08/27 01:05:55;;;;;;;22.55;14.88;;;18.80;99.90;;;;;;4984690;28;20034;-48
2022/08/27 01:08:26;;;;;;;24.83;13.73;;;18.80;99.90;;;;;;4971712;28;20025;-48
2022/08/27 01:10:55;;;;;;;24.85;14.35;;;18.70;99.90;;;;;;4984599;28;20096;-48
2022/08/27 01:13:23;;;;;;;25.85;14.95;;;18.70;99.90;;;;;;4986985;28;20023;-50
2022/08/27 01:15:50;;;;;;;24.80;14.45;;;18.70;99.90;;;;;;4990149;28;20088;-48
2022/08/27 01:18:17;;;;;;;23.58;14.52;;;18.70;99.90;;;;;;4985527;28;20031;-47
2022/08/27 01:21:02;;;;;;;30.08;15.45;;;18.70;99.90;;;;;;4983945;28;20023;-52
2022/08/27 01:23:41;;;;;;;26.85;14.65;;;18.70;99.90;;;;;;4960206;28;20019;-49
2022/08/27 01:26:08;;;;;;;23.10;14.35;;;18.70;99.90;;;;;;4979517;28;20029;-49
2022/08/27 01:28:35;;;;;;;26.67;16.48;;;18.60;99.90;;;;;;4978444;28;20447;-49
2022/08/27 01:31:06;;;;;;;25.55;15.43;;;18.60;99.90;;;;;;4980213;28;20047;-49
2022/08/27 01:33:32;;;;;;;26.88;15.63;;;18.60;99.90;;;;;;4981640;28;20030;-52
2022/08/27 01:35:58;;;;;;;21.42;15.23;;;18.60;99.90;;;;;;4977411;28;20402;-48
2022/08/27 01:38:26;;;;;;;26.90;15.02;;;18.60;99.90;;;;;;4980942;28;20078;-51
2022/08/27 01:40:52;;;;;;;28.33;16.45;;;18.60;99.90;;;;;;4981647;28;20096;-51
2022/08/27 01:43:19;;;;;;;25.67;15.18;;;18.60;99.90;;;;;;4977811;28;20030;-49
2022/08/27 01:45:48;;;;;;;26.30;15.25;;;18.60;99.90;;;;;;4976689;28;20029;-48
2022/08/27 01:48:15;;;;;;;28.42;15.50;;;18.50;99.90;;;;;;4981785;28;20746;-47
2022/08/27 01:50:41;;;;;;;22.65;15.02;;;18.50;99.90;;;;;;4981243;28;20026;-48
2022/08/27 01:53:15;;;;;;;25.83;15.50;;;18.60;99.90;;;;;;4979241;28;20041;-48
2022/08/27 01:55:42;;;;;;;27.58;15.27;;;18.60;99.90;;;;;;4981737;28;20029;-49
2022/08/27 01:58:08;;;;;;;29.05;15.20;;;18.60;99.90;;;;;;4981619;28;20019;-48
2022/08/27 02:00:37;;;;;;;24.25;15.10;;;18.60;99.90;;;;;;4981507;28;20019;-46
2022/08/27 02:03:05;;;;;;;28.73;15.18;;;18.60;99.90;;;;;;4979609;28;20034;-45
2022/08/27 02:05:30;;;;;;;28.73;15.20;;;18.60;99.90;;;;;;4968231;28;20394;-47
2022/08/27 02:07:57;;;;;;;27.63;14.63;;;18.50;99.90;;;;;;4988068;28;20125;-48
2022/08/27 02:10:35;;;;;;;23.20;14.68;;;18.60;99.90;;;;;;4964570;28;20031;-50
2022/08/27 02:13:01;;;;;;;25.33;13.48;;;18.60;99.90;;;;;;4979585;28;20570;-49
2022/08/27 02:15:27;;;;;;;22.27;14.52;;;18.60;99.90;;;;;;4981384;28;20034;-49
2022/08/27 02:17:52;;;;;;;27.52;13.57;;;18.60;99.90;;;;;;4964057;28;20033;-48
2022/08/27 02:20:19;;;;;;;25.13;13.88;;;18.60;99.90;;;;;;4981432;28;20019;-47
2022/08/27 02:22:45;;;;;;;25.17;14.38;;;18.60;99.90;;;;;;4981218;28;20026;-48
2022/08/27 02:25:14;;;;;;;19.13;12.55;;;18.60;99.90;;;;;;4966572;28;20023;-49
2022/08/27 02:27:41;;;;;;;25.38;13.85;;;18.60;99.90;;;;;;4985143;28;20017;-50
2022/08/27 02:30:10;;;;;;;23.85;14.32;;;18.60;99.90;;;;;;4982432;28;20073;-47
2022/08/27 02:32:35;;;;;;;24.67;12.82;;;18.60;99.90;;;;;;4984356;28;20026;-49
2022/08/27 02:35:03;;;;;;;23.13;13.20;;;18.50;99.90;;;;;;4983097;28;20034;-47
2022/08/27 02:37:29;;;;;;;23.17;13.93;;;18.50;99.90;;;;;;4985578;28;20014;-47
2022/08/27 02:39:54;;;;;;;24.80;13.95;;;18.50;99.90;;;;;;4966453;28;20045;-48
2022/08/27 02:42:20;;;;;;;25.33;13.48;;;18.50;99.90;;;;;;4984492;28;20035;-47
2022/08/27 02:44:46;;;;;;;25.25;14.55;;;18.50;99.90;;;;;;4966943;28;20026;-47
2022/08/27 02:47:13;;;;;;;25.83;14.70;;;18.50;99.90;;;;;;4981331;28;20487;-52
2022/08/27 02:49:38;;;;;;;26.98;15.80;;;18.50;99.90;;;;;;4987299;28;20045;-47
2022/08/27 02:52:04;;;;;;;26.80;14.68;;;18.40;99.90;;;;;;4981818;28;20034;-47
2022/08/27 02:54:30;;;;;;;23.30;14.05;;;18.40;99.90;;;;;;4969588;28;20018;-50
2022/08/27 02:56:55;;;;;;;18.83;12.60;;;18.40;99.90;;;;;;4966741;28;20023;-47
2022/08/27 02:59:21;;;;;;;21.70;13.88;;;18.40;99.90;;;;;;4980985;28;20134;-47
2022/08/27 03:01:47;;;;;;;24.30;14.00;;;18.40;99.90;;;;;;4987120;28;20034;-47
2022/08/27 03:04:13;;;;;;;22.13;13.73;;;18.40;99.90;;;;;;4981098;28;20023;-49
2022/08/27 03:06:39;;;;;;;19.08;13.13;;;18.40;99.90;;;;;;4986808;28;20018;-48
2022/08/27 03:09:05;;;;;;;25.55;14.90;;;18.40;99.90;;;;;;4964832;28;20181;-47
2022/08/27 03:11:31;;;;;;;22.15;12.80;;;18.40;99.90;;;;;;4986157;28;20094;-48
2022/08/27 03:13:57;;;;;;;24.10;13.63;;;18.40;99.90;;;;;;4983011;28;20552;-51
2022/08/27 03:16:23;;;;;;;24.55;14.05;;;18.40;99.90;;;;;;4980725;28;20062;-48
2022/08/27 03:18:49;;;;;;;22.02;13.32;;;18.40;99.90;;;;;;4987326;28;20053;-51
2022/08/27 03:21:19;;;;;;;21.48;13.65;;;18.40;99.90;;;;;;4980275;28;20033;-52
2022/08/27 03:23:45;;;;;;;25.38;13.25;;;18.40;99.90;;;;;;4987219;28;20038;-48
2022/08/27 03:26:11;;;;;;;29.85;14.00;;;18.40;99.90;;;;;;4980771;28;20015;-51
2022/08/27 03:28:37;;;;;;;21.83;13.30;;;18.40;99.90;;;;;;4980601;28;20050;-49
2022/08/27 03:31:07;;;;;;;23.40;13.05;;;18.40;99.90;;;;;;4969087;28;20046;-48
2022/08/27 03:33:36;;;;;;;16.20;12.32;;;18.40;99.90;;;;;;4980382;28;20027;-52
2022/08/27 03:36:08;;;;;;;16.55;11.35;;;18.30;99.90;;;;;;4986201;28;20521;-47
2022/08/27 03:38:35;;;;;;;23.10;12.85;;;18.40;99.90;;;;;;4980323;28;20030;-48
2022/08/27 03:41:02;;;;;;;20.83;12.05;;;18.40;99.90;;;;;;4987303;28;20100;-47
2022/08/27 03:43:28;;;;;;;21.98;13.73;;;18.30;99.90;;;;;;4979959;28;20338;-51
2022/08/27 03:45:54;;;;;;;17.63;11.98;;;18.30;99.90;;;;;;4980487;28;20019;-50
2022/08/27 03:48:19;;;;;;;20.83;12.95;;;18.30;99.90;;;;;;4965886;28;20425;-47
2022/08/27 03:50:48;;;;;;;21.33;12.25;;;18.30;99.90;;;;;;4965319;28;20041;-48
2022/08/27 03:53:16;;;;;;;19.92;12.45;;;18.20;99.90;;;;;;4982865;28;20018;-46
2022/08/27 03:55:41;;;;;;;19.25;11.18;;;18.20;99.90;;;;;;4987278;28;20093;-47
2022/08/27 03:58:09;;;;;;;19.23;12.23;;;18.20;99.90;;;;;;4989612;28;20035;-49
2022/08/27 04:00:35;;;;;;;18.52;11.32;;;18.20;99.90;;;;;;4986138;28;20023;-48
2022/08/27 04:03:01;;;;;;;18.00;11.63;;;18.20;99.90;;;;;;4970788;28;20065;-46
2022/08/27 04:05:27;;;;;;;13.73;11.43;;;18.20;99.90;;;;;;4973543;28;20046;-47
2022/08/27 04:07:52;;;;;;;16.40;11.02;;;18.20;99.90;;;;;;4987848;28;20030;-48
2022/08/27 04:10:18;;;;;;;17.63;11.77;;;18.20;99.90;;;;;;4990368;28;20107;-50
2022/08/27 04:12:44;;;;;;;19.13;12.10;;;18.20;99.90;;;;;;4986415;28;20165;-47
2022/08/27 04:15:11;;;;;;;24.45;13.43;;;18.20;99.90;;;;;;4989034;28;20530;-49
2022/08/27 04:17:37;;;;;;;19.92;12.40;;;18.20;99.90;;;;;;4968285;28;20037;-51
2022/08/27 04:20:05;;;;;;;18.98;13.00;;;18.20;99.90;;;;;;4988167;28;20022;-49
2022/08/27 04:22:32;;;;;;;17.48;12.45;;;18.20;99.90;;;;;;4990089;28;20040;-50
2022/08/27 04:24:58;;;;;;;15.15;10.77;;;18.20;99.90;;;;;;4983352;28;20423;-46
2022/08/27 04:27:25;;;;;;;15.60;10.75;;;18.20;99.90;;;;;;4989692;28;20030;-47
2022/08/27 04:29:54;;;;;;;22.77;14.05;;;18.20;99.90;;;;;;4986150;28;20108;-48
2022/08/27 04:32:20;;;;;;;20.95;12.90;;;18.20;99.90;;;;;;4988368;28;20022;-46
2022/08/27 04:34:45;;;;;;;18.45;11.68;;;18.20;99.90;;;;;;4985331;28;20038;-47
2022/08/27 04:37:11;;;;;;;16.73;12.60;;;18.20;99.90;;;;;;4987428;28;20470;-49
2022/08/27 04:39:37;;;;;;;21.35;12.15;;;18.20;99.90;;;;;;4971118;28;20417;-46
2022/08/27 04:42:02;;;;;;;20.45;11.90;;;18.20;99.90;;;;;;4984731;28;20034;-50
2022/08/27 04:44:31;;;;;;;18.98;12.70;;;18.20;99.90;;;;;;4968957;28;20110;-47
2022/08/27 04:46:59;;;;;;;21.85;12.80;;;18.10;99.90;;;;;;4963058;28;20030;-47
2022/08/27 04:49:26;;;;;;;18.05;13.63;;;18.10;99.90;;;;;;4982685;28;20658;-47
2022/08/27 04:51:52;;;;;;;20.33;12.52;;;18.10;99.90;;;;;;4963749;28;20030;-50
2022/08/27 04:54:18;;;;;;;21.13;12.80;;;18.10;99.90;;;;;;4982667;28;20034;-49
2022/08/27 04:56:44;;;;;;;16.90;12.00;;;18.10;99.90;;;;;;4964601;28;20432;-50
2022/08/27 04:59:11;;;;;;;17.08;12.95;;;18.00;99.90;;;;;;4979148;28;20081;-50
2022/08/27 05:01:39;;;;;;;16.42;12.68;;;18.00;99.90;;;;;;4983328;28;20080;-50
2022/08/27 05:04:05;;;;;;;17.88;12.13;;;18.10;99.90;;;;;;4979926;28;20028;-49
2022/08/27 05:06:30;;;;;;;23.63;13.13;;;18.10;99.90;;;;;;4965695;28;20399;-46
2022/08/27 05:08:56;;;;;;;21.02;13.70;;;18.10;99.90;;;;;;4963436;28;20038;-53
2022/08/27 05:11:25;;;;;;;20.92;13.40;;;18.10;99.90;;;;;;4978273;28;20035;-48
2022/08/27 05:13:50;;;;;;;16.23;12.23;;;18.10;99.90;;;;;;4984282;28;20023;-48
2022/08/27 05:16:19;;;;;;;22.35;13.73;;;18.10;99.90;;;;;;4978257;28;20034;-50
2022/08/27 05:18:46;;;;;;;17.38;12.40;;;18.10;99.90;;;;;;4983587;28;20034;-48
2022/08/27 05:21:21;;;;;;;19.70;12.90;;;18.10;99.90;;;;;;4977275;28;20011;-47
2022/08/27 05:23:47;;;;;;;18.98;12.90;;;18.10;99.90;;;;;;4966964;28;20050;-50
2022/08/27 05:26:13;;;;;;;17.80;14.18;;;18.10;99.90;;;;;;4977527;28;20438;-49
2022/08/27 05:28:38;;;;;;;25.70;15.18;;;18.00;99.90;;;;;;4977400;28;20031;-47
2022/08/27 05:31:07;;;;;;;19.88;13.65;;;18.00;99.90;;;;;;4982925;28;20061;-46
2022/08/27 05:33:33;;;;;;;18.10;13.20;;;18.00;99.90;;;;;;4977942;28;20521;-49
2022/08/27 05:36:00;;;;;;;21.13;14.27;;;18.00;99.90;;;;;;4984839;28;20026;-49
2022/08/27 05:38:29;;;;;;;18.42;13.43;;;17.90;99.90;;;;;;4960710;28;20070;-47
2022/08/27 05:41:07;;;;;;;19.42;12.90;;;17.90;99.90;;;;;;4985357;28;20022;-47
2022/08/27 05:43:34;;;;;;;21.42;14.30;;;17.90;99.90;;;;;;4999088;23;20046;-53
2022/08/27 05:46:04;;;;;;;21.45;14.30;;;17.90;99.90;;;;;;4984446;28;20117;-49
2022/08/27 05:48:30;;;;;;;18.02;13.50;;;17.90;99.90;;;;;;4988494;28;20023;-51
2022/08/27 05:50:56;;;;;;;18.08;12.35;;;17.90;99.90;;;;;;4984871;28;20045;-50
2022/08/27 05:53:22;;;;;;;17.42;12.93;;;17.90;99.90;;;;;;4987406;28;20025;-53
2022/08/27 05:55:47;;;;;;;20.27;13.02;;;17.90;99.90;;;;;;4984352;28;20042;-56
2022/08/27 06:01:05;;;;;;;17.05;13.02;;;17.90;99.90;;;;;;4993556;28;20033;-55
2022/08/27 06:03:32;;;;;;;19.52;13.43;;;17.80;99.90;;;;;;4966852;28;20023;-51
2022/08/27 06:06:03;;;;;;;26.42;13.88;;;17.90;99.90;;;;;;4991098;28;20026;-55
2022/08/27 06:08:29;;;;;;;23.73;14.30;;;17.80;99.90;;;;;;4993432;28;20029;-51
2022/08/27 06:10:55;;;;;;;20.10;13.68;;;17.80;99.90;;;;;;4991374;28;20401;-56
2022/08/27 06:13:21;;;;;;;14.90;10.63;;;17.80;99.90;;;;;;4984060;28;20011;-52
2022/08/27 06:15:47;;;;;;;18.67;13.10;;;17.80;99.90;;;;;;4990311;28;20022;-52
2022/08/27 06:18:13;;;;;;;19.70;12.55;;;17.80;99.90;;;;;;4993187;28;20073;-52
2022/08/27 06:20:38;;;;;;;17.88;12.10;;;17.80;99.90;;;;;;4972645;28;20026;-55
2022/08/27 06:23:04;;;;;;;22.38;12.73;;;17.80;99.90;;;;;;4974289;28;20018;-55
2022/08/27 06:25:31;;;;;;;22.08;12.55;;;17.80;99.90;;;;;;4989170;28;20101;-53
2022/08/27 06:27:57;;;;;;;20.60;12.60;;;17.80;99.90;;;;;;4991373;28;20561;-54
2022/08/27 06:30:23;;;;;;;17.08;12.75;;;17.80;99.90;;;;;;4988143;28;20023;-51
2022/08/27 06:32:50;;;;;;;19.48;12.93;;;17.70;99.90;;;;;;4990221;28;20026;-53
2022/08/27 06:35:16;;;;;;;16.83;11.95;;;17.60;99.90;;;;;;4993351;28;20483;-51
2022/08/27 06:37:42;;;;;;;21.45;13.43;;;17.60;99.90;;;;;;4990033;28;20053;-53
2022/08/27 06:40:09;;;;;;;18.60;12.48;;;17.60;99.90;;;;;;4992023;28;20018;-55
2022/08/27 06:42:36;;;;;;;16.90;11.52;;;17.60;99.90;;;;;;4988408;28;20027;-53
2022/08/27 06:45:03;;;;;;;22.10;11.73;;;17.60;99.90;;;;;;4989217;28;20124;-54
2022/08/27 06:47:32;;;;;;;17.42;11.48;;;17.60;99.90;;;;;;4989169;28;20026;-50
2022/08/27 06:49:58;;;;;;;22.20;11.45;;;17.70;99.90;;;;;;4991838;28;20022;-52
2022/08/27 06:52:23;;;;;;;19.30;10.63;;;17.70;99.90;;;;;;4986656;28;20030;-51
2022/08/27 06:54:49;;;;;;;18.40;9.52;;;17.70;99.90;;;;;;4993099;28;20430;-55
2022/08/27 06:57:15;;;;;;;19.27;10.63;;;17.70;99.90;;;;;;4984351;28;20098;-53
2022/08/27 06:59:43;;;;;;;22.90;10.82;;;17.80;99.90;;;;;;4992015;28;20118;-52
2022/08/27 07:02:09;;;;;;;17.55;9.57;;;17.70;99.90;;;;;;4989839;28;20048;-54
2022/08/27 07:04:35;;;;;;;20.60;9.63;;;17.60;99.90;;;;;;4989449;28;20029;-55
2022/08/27 07:07:02;;;;;;;20.90;9.45;;;17.60;99.90;;;;;;4990928;28;20022;-50
2022/08/27 07:09:31;;;;;;;14.60;9.02;;;17.60;99.90;;;;;;4987189;28;20027;-55
2022/08/27 07:11:57;;;;;;;65.60;19.70;;;17.50;99.90;;;;;;4974035;28;20026;-53
2022/08/27 07:14:23;;;;;;;22.02;9.20;;;17.50;99.90;;;;;;4989449;28;20093;-51
2022/08/27 07:16:50;;;;;;;14.43;8.65;;;17.50;99.90;;;;;;4984840;28;20034;-55
2022/08/27 07:19:16;;;;;;;12.60;7.60;;;17.40;99.90;;;;;;4989043;28;20022;-53
2022/08/27 07:21:41;;;;;;;15.65;8.30;;;17.40;99.90;;;;;;4989859;28;20105;-55
2022/08/27 07:24:08;;;;;;;16.67;8.45;;;17.40;99.90;;;;;;4972148;28;20065;-53
2022/08/27 07:26:37;;;;;;;15.48;8.70;;;17.40;99.90;;;;;;4987541;28;20021;-52
2022/08/27 07:29:05;;;;;;;15.90;8.52;;;17.30;99.90;;;;;;4992207;28;20506;-54
2022/08/27 07:31:31;;;;;;;12.98;8.13;;;17.20;99.90;;;;;;4971249;28;20438;-53
2022/08/27 07:33:57;;;;;;;11.20;7.45;;;17.20;99.90;;;;;;4991198;28;20026;-54
2022/08/27 07:36:23;;;;;;;12.40;7.65;;;17.30;99.90;;;;;;4987801;28;20023;-54
2022/08/27 07:38:51;;;;;;;16.33;7.93;;;17.20;99.90;;;;;;4990323;28;20035;-56
2022/08/27 07:41:17;;;;;;;12.57;7.55;;;17.30;99.90;;;;;;4986807;28;20407;-53
2022/08/27 07:46:26;;;;;;;13.82;7.10;;;17.30;99.90;;;;;;4985321;28;20044;-56
2022/08/27 07:48:55;;;;;;;12.70;7.75;;;17.30;99.90;;;;;;4990211;28;20581;-53
2022/08/27 07:51:22;;;;;;;12.85;7.00;;;17.30;99.90;;;;;;4986816;28;20057;-50
2022/08/27 07:53:48;;;;;;;13.52;7.35;;;17.30;99.90;;;;;;4990032;28;20096;-53
2022/08/27 07:56:14;;;;;;;16.40;8.35;;;17.30;99.90;;;;;;4986094;28;20018;-54
2022/08/27 07:58:41;;;;;;;12.38;6.95;;;17.30;99.90;;;;;;4988477;28;20026;-56
2022/08/27 08:01:07;;;;;;;9.55;6.40;;;17.40;99.90;;;;;;4990818;28;20018;-55
2022/08/27 08:03:34;;;;;;;12.27;6.88;;;17.40;99.90;;;;;;4987015;28;20023;-55
2022/08/27 08:06:04;;;;;;;13.98;7.40;;;17.40;99.90;;;;;;4988785;28;20022;-53
2022/08/27 08:08:32;;;;;;;15.20;7.25;;;17.40;99.90;;;;;;4986381;28;20122;-54
2022/08/27 08:10:58;;;;;;;12.02;6.50;;;17.40;99.90;;;;;;4962837;28;20125;-57
2022/08/27 08:13:23;;;;;;;19.75;7.45;;;17.50;99.90;;;;;;4990399;28;20053;-53
2022/08/27 08:15:49;;;;;;;12.20;6.45;;;17.50;99.90;;;;;;4987319;28;20114;-53
2022/08/27 08:18:15;;;;;;;17.98;8.15;;;17.50;99.90;;;;;;4990294;28;20038;-53
2022/08/27 08:20:41;;;;;;;14.38;7.80;;;17.50;99.90;;;;;;4963068;28;20133;-54
2022/08/27 08:23:07;;;;;;;11.25;5.82;;;17.50;99.90;;;;;;4971540;28;20022;-55
2022/08/27 08:25:33;;;;;;;11.88;5.63;;;17.50;99.90;;;;;;4984308;28;20041;-55
2022/08/27 08:27:59;;;;;;;12.60;6.18;;;17.50;99.90;;;;;;4986324;28;20034;-55
2022/08/27 08:30:25;;;;;;;12.25;6.40;;;17.60;99.90;;;;;;4989800;28;20018;-54
2022/08/27 08:32:51;;;;;;;14.57;6.40;;;17.60;99.90;;;;;;4987476;28;20030;-54
2022/08/27 08:35:16;;;;;;;28.00;10.68;;;17.60;99.90;;;;;;4990696;28;20029;-54
2022/08/27 08:37:43;;;;;;;15.23;8.00;;;17.60;99.90;;;;;;4986836;28;20022;-55
2022/08/27 08:40:10;;;;;;;15.80;8.52;;;17.50;99.90;;;;;;4989073;28;20018;-54
2022/08/27 08:42:44;;;;;;;11.57;6.72;;;17.50;99.90;;;;;;4985489;28;20080;-50
2022/08/27 08:45:15;;;;;;;17.67;8.32;;;17.60;99.90;;;;;;4962823;28;20018;-52
2022/08/27 08:47:50;;;;;;;13.10;7.57;;;17.60;99.90;;;;;;4988894;28;20618;-51
2022/08/27 08:50:27;;;;;;;12.13;6.77;;;17.50;99.90;;;;;;4987354;28;20379;-54
2022/08/27 08:53:43;;;;;;;8.93;6.00;;;17.50;99.90;;;;;;4985125;28;20269;-53
2022/08/27 08:56:16;;;;;;;14.30;7.22;;;17.60;99.90;;;;;;4937715;28;20125;-51
2022/08/27 08:58:48;;;;;;;13.98;6.22;;;17.60;99.90;;;;;;4987483;28;20510;-53
2022/08/27 09:01:18;;;;;;;18.10;7.20;;;17.60;99.90;;;;;;4990194;28;20101;-53
2022/08/27 09:03:53;;;;;;;14.98;7.13;;;17.60;99.90;;;;;;4985791;28;20019;-53
2022/08/27 09:06:34;;;;;;;13.80;6.18;;;17.60;99.90;;;;;;4990008;28;20061;-56
2022/08/27 09:09:22;;;;;;;12.02;6.22;;;17.60;99.90;;;;;;4983862;28;20061;-53
2022/08/27 09:12:09;;;;;;;11.15;5.97;;;17.70;99.90;;;;;;4986933;28;20036;-55
2022/08/27 09:14:41;;;;;;;11.13;6.18;;;17.70;99.90;;;;;;4984019;28;20014;-55
2022/08/27 09:17:07;;;;;;;9.95;6.60;;;17.70;99.90;;;;;;4989456;28;20056;-53
2022/08/27 09:19:33;;;;;;;16.88;6.50;;;17.80;99.90;;;;;;4985388;28;20109;-51
2022/08/27 09:22:10;;;;;;;10.27;5.38;;;17.80;99.90;;;;;;4987604;28;20034;-51
2022/08/27 09:25:02;;;;;;;12.55;6.93;;;17.90;99.90;;;;;;4985144;28;20019;-51
2022/08/27 09:27:28;;;;;;;9.50;5.63;;;17.80;99.90;;;;;;4984380;28;20022;-56
2022/08/27 09:29:55;;;;;;;9.57;5.20;;;17.90;99.90;;;;;;4990124;28;20026;-55
2022/08/27 09:32:30;;;;;;;14.43;6.35;;;17.90;99.90;;;;;;4981929;28;20521;-51
2022/08/27 09:34:58;;;;;;;11.27;6.20;;;17.90;99.90;;;;;;4988827;28;20040;-56
2022/08/27 09:37:27;;;;;;;13.88;6.18;;;17.90;99.90;;;;;;4986326;28;20038;-52
2022/08/27 09:40:10;;;;;;;9.45;4.95;;;18.00;99.90;;;;;;4988456;28;20494;-54
2022/08/27 09:42:45;;;;;;;12.32;5.30;;;17.90;99.90;;;;;;4985211;28;20027;-54
2022/08/27 09:45:28;;;;;;;13.60;5.72;;;18.00;99.90;;;;;;4967518;28;20023;-52
2022/08/27 09:48:01;;;;;;;12.50;5.80;;;18.00;99.90;;;;;;4968625;28;20549;-54
2022/08/27 09:50:33;;;;;;;9.13;5.32;;;18.10;99.90;;;;;;4985437;28;20031;-55
2022/08/27 09:52:59;;;;;;;9.45;5.15;;;18.10;99.90;;;;;;4987496;28;20037;-51
2022/08/27 09:55:42;;;;;;;11.35;5.28;;;18.20;99.90;;;;;;4990245;28;20102;-54
2022/08/27 09:58:17;;;;;;;13.32;5.82;;;18.20;99.90;;;;;;4985961;28;20030;-55
2022/08/27 10:00:43;;;;;;;12.57;6.05;;;18.20;99.90;;;;;;4989480;28;20026;-54
2022/08/27 10:03:09;;;;;;;9.80;4.85;;;18.20;99.90;;;;;;4985865;28;20149;-51
2022/08/27 10:05:52;;;;;;;12.27;5.38;;;18.20;99.90;;;;;;4988017;28;20022;-55
2022/08/27 10:08:37;;;;;;;9.38;5.18;;;18.20;99.90;;;;;;4982659;28;20022;-55
2022/08/27 10:11:22;;;;;;;11.88;5.75;;;18.30;99.90;;;;;;4989400;28;20046;-52
2022/08/27 10:13:52;;;;;;;11.07;5.30;;;18.30;99.90;;;;;;4993440;28;20383;-56
2022/08/27 10:16:57;;;;;;;9.93;6.10;;;18.30;99.90;;;;;;4986346;28;20015;-53
2022/08/27 10:19:39;;;;;;;8.38;5.28;;;18.40;99.90;;;;;;4979932;28;20043;-52
2022/08/27 10:22:34;;;;;;;17.98;7.38;;;18.40;99.90;;;;;;4996572;28;20101;-55
2022/08/27 10:25:14;;;;;;;20.40;6.55;;;18.50;99.90;;;;;;4987022;28;20491;-52
2022/08/27 10:27:52;;;;;;;30.00;8.02;;;18.60;99.90;;;;;;4984564;28;20015;-55
2022/08/27 10:30:34;;;;;;;17.80;6.25;;;18.60;99.90;;;;;;4986419;28;20022;-52
2022/08/27 10:33:22;;;;;;;11.68;5.05;;;18.60;99.90;;;;;;4988121;28;20029;-49
2022/08/27 10:36:00;;;;;;;110.32;18.85;;;18.70;99.90;;;;;;4985010;28;20033;-52
2022/08/27 10:38:44;;;;;;;19.60;7.10;;;18.70;99.90;;;;;;4979374;28;20035;-51
2022/08/27 10:41:23;;;;;;;37.47;9.15;;;18.80;99.90;;;;;;4986907;28;20487;-53
2022/08/27 10:44:10;;;;;;;61.70;15.55;;;18.80;99.90;;;;;;4983555;28;20058;-53
2022/08/27 10:47:06;;;;;;;16.65;6.70;;;18.90;99.90;;;;;;4987047;28;20037;-53
2022/08/27 10:49:49;;;;;;;6.10;4.88;;;18.90;99.90;;;;;;4987417;28;20022;-52
2022/08/27 10:52:41;;;;;;;13.65;6.30;;;19.00;99.90;;;;;;4985180;28;20034;-54
2022/08/27 10:55:22;;;;;;;61.78;14.10;;;19.00;99.90;;;;;;4993038;28;20018;-52
2022/08/27 10:57:54;;;;;;;18.40;6.35;;;19.10;99.90;;;;;;4989733;28;20052;-52
2022/08/27 11:00:22;;;;;;;12.68;6.80;;;19.10;99.90;;;;;;4986294;28;20061;-51
2022/08/27 11:02:53;;;;;;;17.02;6.90;;;19.10;99.90;;;;;;4988591;28;20026;-53
2022/08/27 11:05:31;;;;;;;10.25;5.88;;;19.10;99.90;;;;;;4985276;28;20506;-50
2022/08/27 11:08:18;;;;;;;12.57;5.65;;;19.10;99.90;;;;;;4970314;28;20019;-56
2022/08/27 11:10:52;;;;;;;9.95;4.80;;;19.10;99.90;;;;;;4965477;28;20054;-53
2022/08/27 11:13:30;;;;;;;8.63;4.03;;;19.10;99.90;;;;;;4985081;28;20026;-54
2022/08/27 11:15:58;;;;;;;11.38;4.78;;;19.00;99.90;;;;;;4988969;28;20081;-54
2022/08/27 11:18:41;;;;;;;8.00;4.18;;;19.10;99.90;;;;;;4992413;28;20022;-52
2022/08/27 11:21:35;;;;;;;14.45;3.88;;;19.10;99.90;;;;;;4986325;28;20569;-53
2022/08/27 11:24:13;;;;;;;11.43;3.28;;;19.20;99.90;;;;;;4990350;28;20022;-54
2022/08/27 11:26:40;;;;;;;7.50;3.75;;;19.30;99.90;;;;;;4970606;28;20684;-50
2022/08/27 11:29:31;;;;;;;9.75;3.53;;;19.30;99.90;;;;;;4992207;28;20490;-54
2022/08/27 11:32:30;;;;;;;4.85;2.75;;;19.30;99.90;;;;;;4986128;28;20028;-51
2022/08/27 11:34:59;;;;;;;7.55;2.90;;;19.30;99.90;;;;;;4990749;28;20165;-56
2022/08/27 11:37:56;;;;;;;8.95;2.80;;;19.30;99.90;;;;;;4988329;28;20018;-54
2022/08/27 11:40:48;;;;;;;6.00;2.60;;;19.40;99.90;;;;;;4991745;28;20109;-56
2022/08/27 11:43:17;;;;;;;9.15;3.17;;;19.60;99.90;;;;;;5003195;23;21486;-44
2022/08/27 11:46:04;;;;;;;7.53;2.83;;;19.60;99.90;;;;;;4987790;28;20029;-45
2022/08/27 11:48:42;;;;;;;7.45;3.50;;;19.70;99.90;;;;;;4986047;28;20029;-45
2022/08/27 11:51:11;;;;;;;8.80;2.70;;;19.80;99.90;;;;;;4986297;28;20674;-45
2022/08/27 11:53:40;;;;;;;8.65;2.67;;;19.90;99.90;;;;;;4989114;28;20052;-45
2022/08/27 11:56:40;;;;;;;8.13;1.92;;;20.10;99.90;;;;;;4983595;28;20489;-45
2022/08/27 11:59:25;;;;;;;6.65;2.85;;;20.20;99.90;;;;;;4981264;28;20490;-43
2022/08/27 12:01:52;;;;;;;4.22;2.30;;;20.30;99.90;;;;;;4988030;28;20026;-45
2022/08/27 12:04:24;;;;;;;8.57;2.45;;;20.30;99.90;;;;;;4980203;28;20038;-45
2022/08/27 12:07:03;;;;;;;5.38;2.38;;;20.40;99.90;;;;;;4988470;28;20053;-45
2022/08/27 12:09:41;;;;;;;6.57;2.28;;;20.60;99.90;;;;;;4978934;28;20581;-45
2022/08/27 12:12:18;;;;;;;7.32;2.47;;;20.70;99.90;;;;;;4980027;28;20026;-47
2022/08/27 12:14:53;;;;;;;5.00;2.30;;;20.90;99.90;;;;;;4987306;28;20179;-44
2022/08/27 12:17:29;;;;;;;8.20;2.92;;;20.90;99.90;;;;;;4991715;28;20050;-45
2022/08/27 12:20:26;;;;;;;7.47;2.17;;;21.00;99.90;;;;;;4991101;28;20035;-45
2022/08/27 12:26:32;;;;;;;5.97;2.13;;;21.20;99.90;;;;;;4983469;28;20037;-45
2022/08/27 12:29:19;;;;;;;5.68;2.40;;;21.30;99.90;;;;;;4981183;28;20031;-47
2022/08/27 12:31:47;;;;;;;5.10;2.38;;;21.40;99.90;;;;;;4983241;28;20041;-45
2022/08/27 12:34:18;;;;;;;7.57;2.53;;;21.10;99.90;;;;;;4982736;28;20061;-45
2022/08/27 12:36:47;;;;;;;7.13;2.28;;;21.20;99.90;;;;;;4983676;28;20119;-46
2022/08/27 12:39:17;;;;;;;5.70;1.77;;;21.30;99.90;;;;;;4982976;28;20034;-42
2022/08/27 12:41:48;;;;;;;3.38;1.90;;;21.40;99.90;;;;;;4983362;28;20020;-42
2022/08/27 12:44:30;;;;;;;10.18;2.67;;;21.40;99.90;;;;;;4982380;28;20057;-42
2022/08/27 12:47:15;;;;;;;8.50;2.05;;;21.60;99.90;;;;;;4989757;28;20030;-42
2022/08/27 12:49:48;;;;;;;5.68;1.85;;;21.60;99.90;;;;;;4986594;28;20505;-42
2022/08/27 12:52:52;;;;;;;3.80;1.30;;;21.60;99.90;;;;;;4979152;28;20031;-44
2022/08/27 12:55:35;;;;;;;7.25;2.55;;;21.70;99.90;;;;;;4977233;28;20034;-43
2022/08/27 12:58:35;;;;;;;11.38;2.85;;;21.80;99.90;;;;;;4979650;28;20032;-43
2022/08/27 13:01:25;;;;;;;12.57;3.30;;;22.00;99.90;;;;;;4982576;28;20375;-45